Time;durP1;ratioP1;P1;durP2;ratioP2;P2;SDS_P1;SDS_P2;PMS_P1;PMS_P2;Temp;Humidity;BMP_temperature;BMP_pressure;BME280_temperature;BME280_humidity;BME280_pressure;Samples;Min_cycle;Max_cycle;Signal;HPM_P1;HPM_P2
2022/11/12 00:03:46;;;;;;;;;;;;;;;4.42;100.00;97246.94;10510061;28;2610;-68
2022/11/12 00:08:49;;;;;;;;;;;;;;;4.46;100.00;97242.88;10514050;28;2626;-69
2022/11/12 00:13:53;;;;;;;;;;;;;;;4.43;100.00;97239.78;10514086;28;2631;-68
2022/11/12 00:18:57;;;;;;;;;;;;;;;4.49;100.00;97238.97;10514919;28;2607;-67
2022/11/12 00:24:00;;;;;;;;;;;;;;;4.53;100.00;97246.38;10507604;28;2604;-68
2022/11/12 00:29:04;;;;;;;;;;;;;;;4.42;100.00;97249.59;10502150;28;2688;-68
2022/11/12 00:34:07;;;;;;;;;;;;;;;4.34;100.00;97242.59;10511237;28;2626;-69
2022/11/12 00:39:10;;;;;;;;;;;;;;;4.17;100.00;97243.13;10510839;28;2586;-68
2022/11/12 00:44:14;;;;;;;;;;;;;;;4.04;100.00;97247.38;10510210;28;2594;-68
2022/11/12 00:49:17;;;;;;;;;;;;;;;3.91;100.00;97244.63;10517761;28;2636;-69
2022/11/12 00:54:20;;;;;;;;;;;;;;;3.82;100.00;97245.81;10499821;28;2729;-67
2022/11/12 00:59:23;;;;;;;;;;;;;;;3.83;100.00;97239.47;10507924;28;2559;-68
2022/11/12 01:04:27;;;;;;;;;;;;;;;3.93;100.00;97239.09;10504758;28;2702;-69
2022/11/12 01:09:34;;;;;;;;;;;;;;;3.91;100.00;97235.81;10501272;28;2952;-67
2022/11/12 01:14:37;;;;;;;;;;;;;;;3.87;100.00;97227.41;10507830;28;2949;-68
2022/11/12 01:19:40;;;;;;;;;;;;;;;4.00;100.00;97229.31;10514475;28;2847;-68
2022/11/12 01:24:44;;;;;;;;;;;;;;;4.03;100.00;97223.63;10512220;28;2896;-68
2022/11/12 01:29:47;;;;;;;;;;;;;;;4.01;100.00;97213.19;10503305;28;2888;-68
2022/11/12 01:34:50;;;;;;;;;;;;;;;4.02;100.00;97216.66;10510832;28;2966;-68
2022/11/12 01:39:54;;;;;;;;;;;;;;;4.03;100.00;97215.63;10506826;28;2914;-67
2022/11/12 01:44:58;;;;;;;;;;;;;;;4.07;100.00;97216.88;10516556;28;2906;-67
2022/11/12 01:50:01;;;;;;;;;;;;;;;3.95;100.00;97208.66;10511701;28;2854;-67
2022/11/12 01:55:04;;;;;;;;;;;;;;;3.92;100.00;97197.56;10514979;28;2935;-68
2022/11/12 02:00:07;;;;;;;;;;;;;;;3.96;100.00;97207.63;10508124;28;2999;-71
2022/11/12 02:05:11;;;;;;;;;;;;;;;3.87;100.00;97195.47;10517996;28;2957;-69
2022/11/12 02:10:14;;;;;;;;;;;;;;;3.67;100.00;97184.72;10513861;28;3023;-68
2022/11/12 02:15:17;;;;;;;;;;;;;;;3.52;100.00;97178.72;10512116;28;2890;-68
2022/11/12 02:20:20;;;;;;;;;;;;;;;3.36;100.00;97185.13;10507464;28;2886;-68
2022/11/12 02:25:24;;;;;;;;;;;;;;;3.30;100.00;97179.78;10509730;28;2886;-68
2022/11/12 02:30:27;;;;;;;;;;;;;;;3.32;100.00;97180.41;10511158;28;2868;-68
2022/11/12 02:35:31;;;;;;;;;;;;;;;3.35;100.00;97174.69;10521864;28;2890;-68
2022/11/12 02:40:34;;;;;;;;;;;;;;;3.38;100.00;97171.69;10512595;28;2977;-68
2022/11/12 02:45:37;;;;;;;;;;;;;;;3.28;100.00;97171.19;10515282;28;2867;-70
2022/11/12 02:50:40;;;;;;;;;;;;;;;3.24;100.00;97166.25;10511070;28;2954;-73
2022/11/12 02:55:44;;;;;;;;;;;;;;;3.27;100.00;97174.84;10512447;28;2803;-72
2022/11/12 03:00:47;;;;;;;;;;;;;;;3.11;100.00;97171.44;10503015;28;2894;-75
2022/11/12 03:05:50;;;;;;;;;;;;;;;2.98;100.00;97177.47;10504950;28;2858;-68
2022/11/12 03:10:53;;;;;;;;;;;;;;;2.74;100.00;97169.94;10510459;28;2918;-68
2022/11/12 03:15:56;;;;;;;;;;;;;;;2.60;100.00;97184.88;10518239;28;2863;-68
2022/11/12 03:21:00;;;;;;;;;;;;;;;2.56;100.00;97185.47;10510100;28;2838;-68
2022/11/12 03:26:03;;;;;;;;;;;;;;;2.52;100.00;97190.31;10514246;28;2910;-68
2022/11/12 03:31:07;;;;;;;;;;;;;;;2.53;100.00;97205.22;10513913;28;2974;-67
2022/11/12 03:36:10;;;;;;;;;;;;;;;2.55;100.00;97197.09;10520969;28;2874;-67
2022/11/12 03:41:14;;;;;;;;;;;;;;;2.49;100.00;97198.66;10517946;28;2864;-67
2022/11/12 03:46:17;;;;;;;;;;;;;;;2.36;100.00;97199.34;10513434;28;2902;-69
2022/11/12 03:51:21;;;;;;;;;;;;;;;2.37;100.00;97202.81;10503951;28;2838;-68
2022/11/12 03:56:25;;;;;;;;;;;;;;;2.24;100.00;97192.88;10509010;28;2853;-68
2022/11/12 04:01:30;;;;;;;;;;;;;;;2.13;100.00;97199.47;10510276;28;3029;-68
2022/11/12 04:11:54;;;;;;;;;;;;;;;1.95;100.00;97203.50;10508849;28;2926;-71
2022/11/12 04:22:39;;;;;;;;;;;;;;;2.00;100.00;97204.59;10506378;28;2843;-67
2022/11/12 04:27:42;;;;;;;;;;;;;;;2.11;100.00;97203.31;10511459;28;2874;-68
2022/11/12 04:32:45;;;;;;;;;;;;;;;2.06;100.00;97198.56;10502411;28;2844;-68
2022/11/12 04:37:50;;;;;;;;;;;;;;;2.11;100.00;97203.31;10506282;28;2918;-67
2022/11/12 04:48:14;;;;;;;;;;;;;;;2.31;100.00;97201.72;10508483;28;2854;-67
2022/11/12 04:53:17;;;;;;;;;;;;;;;2.40;100.00;97211.22;10505532;28;2897;-69
2022/11/12 04:58:20;;;;;;;;;;;;;;;2.39;100.00;97208.75;10509189;28;2919;-68
2022/11/12 05:03:24;;;;;;;;;;;;;;;2.38;100.00;97210.59;10510609;28;2906;-69
2022/11/12 05:08:27;;;;;;;;;;;;;;;2.26;100.00;97209.41;10504836;28;2875;-69
2022/11/12 05:13:31;;;;;;;;;;;;;;;2.33;100.00;97218.28;10504588;28;2898;-68
2022/11/12 05:18:34;;;;;;;;;;;;;;;2.51;100.00;97214.41;10505795;28;2909;-69
2022/11/12 05:23:37;;;;;;;;;;;;;;;2.38;100.00;97207.09;10502442;28;2942;-69
2022/11/12 05:28:40;;;;;;;;;;;;;;;2.45;100.00;97208.00;10504398;28;2867;-68
2022/11/12 05:33:44;;;;;;;;;;;;;;;2.51;100.00;97204.59;10515027;28;2829;-68
2022/11/12 05:38:47;;;;;;;;;;;;;;;2.59;100.00;97208.97;10515276;28;2933;-69
2022/11/12 05:43:50;;;;;;;;;;;;;;;2.65;100.00;97213.53;10508640;28;2933;-67
2022/11/12 05:48:53;;;;;;;;;;;;;;;2.69;100.00;97214.81;10515219;28;2852;-69
2022/11/12 05:53:56;;;;;;;;;;;;;;;2.64;100.00;97218.00;10511990;28;2884;-69
2022/11/12 05:59:00;;;;;;;;;;;;;;;2.48;100.00;97228.84;10514296;28;2877;-69
2022/11/12 06:04:03;;;;;;;;;;;;;;;2.48;100.00;97231.50;10514203;28;2871;-69
2022/11/12 06:09:06;;;;;;;;;;;;;;;2.65;100.00;97224.97;10517344;28;2920;-69
2022/11/12 06:14:09;;;;;;;;;;;;;;;2.61;100.00;97246.78;10511903;28;2941;-69
2022/11/12 06:19:13;;;;;;;;;;;;;;;2.56;100.00;97238.56;10514239;28;3042;-68
2022/11/12 06:24:16;;;;;;;;;;;;;;;2.83;100.00;97232.50;10504944;28;2894;-72
2022/11/12 06:29:19;;;;;;;;;;;;;;;2.86;100.00;97226.84;10509339;28;2921;-73
2022/11/12 06:34:22;;;;;;;;;;;;;;;2.92;100.00;97231.34;10511135;28;3064;-69
2022/11/12 06:39:26;;;;;;;;;;;;;;;2.89;100.00;97225.63;10508157;28;2910;-69
2022/11/12 06:44:29;;;;;;;;;;;;;;;3.12;100.00;97231.56;10507632;28;2930;-70
2022/11/12 06:49:33;;;;;;;;;;;;;;;3.31;100.00;97235.41;10504629;28;2852;-70
2022/11/12 06:54:37;;;;;;;;;;;;;;;3.43;100.00;97244.47;10509518;28;2899;-70
2022/11/12 06:59:40;;;;;;;;;;;;;;;3.48;100.00;97231.44;10503883;28;2890;-71
2022/11/12 07:04:46;;;;;;;;;;;;;;;3.46;100.00;97228.16;10504849;28;2829;-69
2022/11/12 07:09:48;;;;;;;;;;;4.30;99.90;;;3.31;100.00;97230.09;10508429;28;2866;-68
2022/11/12 07:14:53;;;;;;;;;;;4.30;99.90;;;3.60;100.00;97230.91;10512581;28;2925;-69
2022/11/12 07:19:55;;;;;;;;;;;4.50;99.90;;;3.58;100.00;97240.94;10506769;28;2899;-69
2022/11/12 07:25:08;;;;;;;;;;;4.40;99.90;;;3.37;100.00;97244.44;10525842;28;2979;-70
2022/11/12 07:30:12;;;;;;;;;;;4.30;99.90;;;3.58;100.00;97240.94;10517707;28;3024;-68
2022/11/12 07:35:14;;;;;;;;;;;4.40;99.90;;;3.99;100.00;97233.81;10516394;28;2840;-73
2022/11/12 07:40:17;;;;;;;;;;;4.60;99.90;;;4.01;100.00;97241.63;10538850;27;2921;-69
2022/11/12 07:45:20;;;;;;;;;;;;;;;3.91;100.00;97227.84;10543967;27;2874;-70
2022/11/12 07:50:28;;;;;;;;;;;;;;;3.84;100.00;97230.47;10518461;28;2947;-72
2022/11/12 07:55:31;;;;;;;;;;;;;;;3.84;100.00;97229.66;10512740;28;2870;-69
2022/11/12 08:00:35;;;;;;;;;;;;;;;3.85;100.00;97225.97;10509162;28;2899;-69
2022/11/12 08:05:38;;;;;;;;;;;;;;;3.72;100.00;97229.38;10510889;28;2869;-68
2022/11/12 08:10:41;;;;;;;;;;;;;;;3.97;100.00;97237.72;10512808;28;2875;-69
2022/11/12 08:15:45;;;;;;;;;;;;;;;3.91;100.00;97241.16;10515195;28;2800;-73
2022/11/12 08:20:54;;;;;;;;;;;;;;;4.02;100.00;97240.59;10514165;28;2863;-69
2022/11/12 08:25:57;;;;;;;;;;;;;;;4.13;100.00;97250.69;10511645;28;2977;-69
2022/11/12 08:31:01;;;;;;;;;;;;;;;4.64;100.00;97242.28;10508130;28;2860;-69
2022/11/12 08:36:05;;;;;;;;;;;;;;;5.04;100.00;97237.09;10498884;28;2883;-69
2022/11/12 08:41:08;;;;;;;;;;;;;;;4.76;100.00;97250.53;10510591;28;2822;-68
2022/11/12 08:46:12;;;;;;;;;;;;;;;4.32;100.00;97241.97;10522798;28;2910;-72
2022/11/12 08:51:15;;;;;;;;;;;;;;;4.52;100.00;97242.06;10516574;28;2935;-72
2022/11/12 08:56:19;;;;;;;;;;;;;;;5.24;100.00;97242.44;10503531;28;2856;-69
2022/11/12 09:01:22;;;;;;;;;;;;;;;5.57;100.00;97231.78;10507345;28;2860;-76
2022/11/12 09:06:26;;;;;;;;;;;;;;;5.72;100.00;97228.88;10509251;28;2907;-71
2022/11/12 09:11:29;;;;;;;;;;;;;;;5.52;100.00;97235.06;10506704;28;2946;-75
2022/11/12 09:16:32;;;;;;;;;;;;;;;5.63;100.00;97223.75;10511024;28;3019;-71
2022/11/12 09:21:36;;;;;;;;;;;;;;;6.35;100.00;97240.66;10505288;28;2890;-69
2022/11/12 09:26:39;;;;;;;;;;;;;;;6.56;100.00;97239.59;10513267;28;2898;-71
2022/11/12 09:31:42;;;;;;;;;;;;;;;6.70;100.00;97232.31;10510069;28;2941;-69
2022/11/12 09:36:46;;;;;;;;;;;;;;;7.07;100.00;97245.91;10534582;27;2867;-72
2022/11/12 09:41:49;;;;;;;;;;;;;;;7.09;100.00;97230.47;10507517;28;3014;-70
2022/11/12 09:46:52;;;;;;;;;;;;;;;7.20;100.00;97232.44;10507373;28;2843;-71
2022/11/12 09:51:56;;;;;;;;;;;;;;;7.29;100.00;97236.47;10507442;28;2875;-69
2022/11/12 09:56:59;;;;;;;;;;;;;;;7.38;100.00;97224.50;10500972;28;2940;-73
2022/11/12 10:02:03;;;;;;;;;;;;;;;6.66;100.00;97237.25;10517988;28;2969;-70
2022/11/12 10:07:08;;;;;;;;;;;;;;;6.56;100.00;97236.09;10513491;28;2795;-70
2022/11/12 10:17:33;;;;;;;;;;;;;;;6.82;100.00;97217.25;10509738;28;2909;-68
2022/11/12 10:22:37;;;;;;;;;;;;;;;6.76;100.00;97223.44;10511058;28;2869;-69
2022/11/12 10:27:40;;;;;;;;;;;;;;;7.10;100.00;97213.38;10514921;28;2899;-70
2022/11/12 10:32:44;;;;;;;;;;;;;;;6.78;100.00;97208.00;10530169;28;3347;-71
2022/11/12 10:37:47;;;;;;;;;;;;;;;7.05;100.00;97188.09;10505628;28;2990;-71
2022/11/12 10:42:51;;;;;;;;;;;;;;;7.46;100.00;97188.63;10510984;28;2994;-71
2022/11/12 10:47:54;;;;;;;;;;;;;;;7.15;100.00;97184.13;10543196;28;2863;-70
2022/11/12 10:52:58;;;;;;;;;;;;;;;7.55;100.00;97176.59;10519807;28;2907;-66
2022/11/12 10:58:01;;;;;;;;;;;;;;;7.68;100.00;97167.63;10519538;28;2906;-70
2022/11/12 11:03:04;;;;;;;;;;;;;;;8.04;100.00;97178.34;10517657;28;2890;-66
2022/11/12 11:08:08;;;;;;;;;;;;;;;8.42;100.00;97166.63;10515025;28;2863;-68
2022/11/12 11:13:12;;;;;;;;;;;;;;;8.23;100.00;97167.66;10520859;28;2867;-69
2022/11/12 11:18:15;;;;;;;;;;;;;;;8.12;100.00;97151.28;10524163;28;2797;-70
2022/11/12 11:23:19;;;;;;;;;;;;;;;7.46;100.00;97151.16;10509993;28;2907;-72
2022/11/12 11:28:22;;;;;;;;;;;;;;;7.85;100.00;97152.63;10513747;28;2936;-71
2022/11/12 11:33:28;;;;;;;;;;;;;;;8.08;100.00;97143.94;10520990;28;2827;-71
2022/11/12 11:38:31;;;;;;;;;;;;;;;7.96;100.00;97149.22;10514208;28;2898;-75
2022/11/12 11:43:35;;;;;;;;;;;;;;;8.32;100.00;97139.50;10515640;28;2859;-72
2022/11/12 11:48:38;;;;;;;;;;;;;;;7.87;100.00;97131.78;10505450;28;3043;-73
2022/11/12 11:53:42;;;;;;;;;;;;;;;7.97;100.00;97126.75;10512496;28;2902;-71
2022/11/12 11:58:45;;;;;;;;;;;;;;;7.48;100.00;97127.66;10513343;28;2975;-72
2022/11/12 12:03:49;;;;;;;;;;;;;;;7.95;100.00;97123.47;10510759;28;2890;-68
2022/11/12 12:08:52;;;;;;;;;;;;;;;7.77;100.00;97126.16;10508289;28;2775;-66
2022/11/12 12:13:56;;;;;;;;;;;;;;;7.92;100.00;97123.91;10500745;28;2827;-65
2022/11/12 12:18:59;;;;;;;;;;;;;;;7.79;100.00;97118.72;10508803;28;2819;-65
2022/11/12 12:24:02;;;;;;;;;;;;;;;7.64;100.00;97121.75;10503503;28;3008;-66
2022/11/12 12:29:06;;;;;;;;;;;;;;;7.83;100.00;97120.72;10540929;27;2886;-65
2022/11/12 12:34:09;;;;;;;;;;;;;;;7.70;100.00;97120.03;10508255;28;2866;-65
2022/11/12 12:39:13;;;;;;;;;;;;;;;7.74;100.00;97105.16;10510427;28;2807;-68
2022/11/12 12:44:16;;;;;;;;;;;;;;;7.78;100.00;97101.00;10516446;28;2981;-74
2022/11/12 12:49:20;;;;;;;;;;;;;;;7.62;100.00;97085.53;10514161;28;2875;-75
2022/11/12 12:54:23;;;;;;;;;;;;;;;7.76;100.00;97082.50;10516450;28;2938;-78
2022/11/12 12:59:27;;;;;;;;;;;;;;;8.03;100.00;97072.28;10524386;28;2912;-76
2022/11/12 13:04:30;;;;;;;;;;;;;;;7.80;100.00;97066.81;10528903;28;3146;-75
2022/11/12 13:09:34;;;;;;;;;;;;;;;7.93;100.00;97063.97;10524813;28;2839;-75
2022/11/12 13:14:37;;;;;;;;;;;;;;;8.01;100.00;97068.19;10525494;28;2903;-76
2022/11/12 13:19:42;;;;;;;;;;;;;;;7.55;100.00;97062.34;10514734;28;2987;-74
2022/11/12 13:24:45;;;;;;;;;;;;;;;7.74;100.00;97055.13;10516338;28;2916;-73
2022/11/12 13:29:49;;;;;;;;;;;;;;;7.90;100.00;97059.06;10520428;28;2866;-77
2022/11/12 13:34:53;;;;;;;;;;;;;;;8.02;100.00;97054.59;10518915;28;2966;-75
2022/11/12 13:39:56;;;;;;;;;;;;;;;8.09;100.00;97055.31;10511017;28;2982;-67
2022/11/12 13:45:00;;;;;;;;;;;;;;;8.22;100.00;97053.50;10514349;28;3033;-65
2022/11/12 13:50:05;;;;;;;;;;;;;;;7.90;100.00;97051.03;10506123;28;2861;-64
2022/11/12 13:55:09;;;;;;;;;;;;;;;7.71;100.00;97047.56;10508324;28;2898;-66
2022/11/12 14:00:13;;;;;;;;;;;;;;;7.65;100.00;97042.28;10519823;28;2923;-76
2022/11/12 14:05:17;;;;;;;;;;;;;;;7.50;100.00;97046.13;10506422;28;3031;-77
2022/11/12 14:10:20;;;;;;;;;;;8.50;99.90;;;7.47;100.00;97041.25;10513718;28;2975;-79
2022/11/12 14:15:23;;;;;;;;;;;8.40;99.90;;;7.52;100.00;97043.25;10518764;28;2913;-78
2022/11/12 14:20:27;;;;;;;;;;;;;;;7.34;100.00;97033.38;10522770;28;2862;-81
2022/11/12 14:25:31;;;;;;;;;;;;;;;7.05;100.00;97032.19;10516591;28;2922;-78
2022/11/12 14:30:34;;;;;;;;;;;;;;;6.89;100.00;97024.75;10518781;28;2951;-77
2022/11/12 14:35:38;;;;;;;;;;;;;;;6.76;100.00;97023.03;10513551;28;2910;-77
2022/11/12 14:40:42;;;;;;;;;;;;;;;6.69;100.00;97014.25;10511429;28;3131;-74
2022/11/12 14:45:45;;;;;;;;;;;;;;;6.54;100.00;97016.41;10521186;28;3003;-76
2022/11/12 14:50:48;;;;;;;;;;;;;;;6.33;100.00;97013.06;10519693;28;2935;-76
2022/11/12 14:55:53;;;;;;;;;;;;;;;6.25;100.00;97021.34;10522229;28;2827;-75
2022/11/12 15:00:56;;;;;;;;;;;;;;;5.96;100.00;97012.88;10523845;28;2985;-75
2022/11/12 15:06:00;;;;;;;;;;;;;;;5.93;100.00;97010.66;10528516;28;2843;-75
2022/11/12 15:11:03;;;;;;;;;;;;;;;5.79;100.00;97026.91;10524599;28;2839;-77
2022/11/12 15:16:07;;;;;;;;;;;;;;;5.56;100.00;97019.41;10523205;28;2919;-77
2022/11/12 15:21:10;;;;;;;;;;;;;;;5.46;100.00;97011.03;10517826;28;2954;-77
2022/11/12 15:26:13;;;;;;;;;;;;;;;5.40;100.00;97004.69;10525793;28;2851;-77
2022/11/12 15:31:23;;;;;;;;;;;;;;;5.45;100.00;97002.22;10517936;28;2779;-79
2022/11/12 15:36:30;;;;;;;;;;;;;;;5.34;100.00;97014.38;10522589;28;2889;-78
2022/11/12 15:41:33;;;;;;;;;;;;;;;5.24;100.00;97019.31;10515837;28;2864;-78
2022/11/12 15:46:42;;;;;;;;;;;;;;;5.09;100.00;97013.38;10522962;28;2937;-77
2022/11/12 15:51:45;;;;;;;;;;;;;;;5.17;100.00;97007.84;10505982;28;2867;-77
2022/11/12 15:56:48;;;;;;;;;;;;;;;5.23;100.00;97007.03;10526631;28;3089;-75
2022/11/12 16:01:51;;;;;;;;;;;;;;;5.28;100.00;97004.53;10512529;28;3106;-78
2022/11/12 16:06:55;;;;;;;;;;;;;;;5.38;100.00;97009.41;10522563;28;2936;-76
2022/11/12 16:11:59;;;;;;;;;;;;;;;5.21;100.00;97003.72;10509196;28;2998;-76
2022/11/12 16:17:02;;;;;;;;;;;;;;;5.31;100.00;97003.28;10520629;28;2854;-76
2022/11/12 16:22:11;;;;;;;;;;;;;;;5.30;100.00;97007.81;10519009;28;2929;-76
2022/11/12 16:27:14;;;;;;;;;;;;;;;5.04;100.00;96997.22;10517482;28;2994;-70
2022/11/12 16:32:18;;;;;;;;;;;;;;;5.08;100.00;97009.09;10513740;28;3033;-70
2022/11/12 16:37:21;;;;;;;;;;;;;;;5.27;100.00;97002.88;10521118;28;2844;-70
2022/11/12 16:42:24;;;;;;;;;;;;;;;5.32;100.00;97003.09;10509439;28;2763;-72
2022/11/12 16:47:28;;;;;;;;;;;;;;;5.17;100.00;97004.38;10518598;28;2930;-74
2022/11/12 16:52:31;;;;;;;;;;;;;;;5.11;100.00;96998.03;10525313;28;3189;-80
2022/11/12 16:57:35;;;;;;;;;;;;;;;4.96;100.00;97002.75;10519291;28;3020;-69
2022/11/12 17:02:38;;;;;;;;;;;;;;;5.09;100.00;96994.72;10514589;28;2929;-69
2022/11/12 17:07:49;;;;;;;;;;;;;;;4.85;100.00;97005.03;10505235;28;2859;-77
2022/11/12 17:12:52;;;;;;;;;;;;;;;4.77;100.00;97007.94;10511389;28;3011;-75
2022/11/12 17:17:55;;;;;;;;;;;;;;;4.77;100.00;97001.75;10514014;28;2846;-72
2022/11/12 17:22:58;;;;;;;;;;;;;;;4.68;100.00;96998.50;10516717;28;2844;-67
2022/11/12 17:28:02;;;;;;;;;;;;;;;4.76;100.00;96986.81;10518046;28;2856;-70
2022/11/12 17:33:05;;;;;;;;;;;;;;;4.54;100.00;96988.88;10516536;28;2953;-69
2022/11/12 17:38:08;;;;;;;;;;;;;;;4.47;100.00;96988.06;10527449;28;2925;-70
2022/11/12 17:43:11;;;;;;;;;;;;;;;4.59;100.00;96994.41;10521127;28;2847;-68
2022/11/12 17:48:14;;;;;;;;;;;;;;;4.47;100.00;96980.91;10522435;28;2867;-72
2022/11/12 17:53:17;;;;;;;;;;;;;;;4.66;100.00;96979.25;10524776;28;2842;-68
2022/11/12 17:58:21;;;;;;;;;;;;;;;4.51;100.00;96973.31;10525626;28;2868;-68
2022/11/12 18:03:24;;;;;;;;;;;;;;;4.55;100.00;96977.22;10526673;28;2930;-70
2022/11/12 18:08:27;;;;;;;;;;;;;;;4.65;100.00;96966.16;10521677;28;2917;-70
2022/11/12 18:13:30;;;;;;;;;;;;;;;4.76;100.00;96960.97;10519133;28;2836;-69
2022/11/12 18:18:33;;;;;;;;;;;;;;;4.61;100.00;96961.22;10523662;28;2847;-70
2022/11/12 18:23:39;;;;;;;;;;;;;;;4.79;100.00;96957.91;10518188;28;2887;-67
2022/11/12 18:28:42;;;;;;;;;;;;;;;4.68;100.00;96950.56;10503929;28;2910;-71
2022/11/12 18:33:45;;;;;;;;;;;;;;;4.53;100.00;96957.97;10509485;28;2894;-71
2022/11/12 18:38:49;;;;;;;;;;;;;;;4.42;100.00;96956.72;10530988;28;2862;-67
2022/11/12 18:43:52;;;;;;;;;;;;;;;4.61;100.00;96949.75;10520306;28;2927;-73
2022/11/12 18:48:55;;;;;;;;;;;;;;;4.64;100.00;96949.31;10518095;28;2907;-69
2022/11/12 18:53:59;;;;;;;;;;;;;;;4.71;100.00;96936.00;10516707;28;2882;-68
2022/11/12 18:59:02;;;;;;;;;;;;;;;4.86;100.00;96937.41;10516402;28;2973;-71
2022/11/12 19:04:05;;;;;;;;;;;;;;;4.88;100.00;96935.34;10508776;28;2903;-69
2022/11/12 19:09:10;;;;;;;;;;;;;;;4.94;100.00;96932.88;10515127;28;2946;-69
2022/11/12 19:14:14;;;;;;;;;;;;;;;4.78;100.00;96926.16;10522426;28;2915;-70
2022/11/12 19:19:17;;;;;;;;;;;;;;;4.75;100.00;96922.06;10522938;28;2945;-69
2022/11/12 19:24:20;;;;;;;;;;;;;;;4.64;100.00;96919.22;10522160;28;2894;-70
2022/11/12 19:29:23;;;;;;;;;;;;;;;4.82;100.00;96920.19;10520519;28;3393;-70
2022/11/12 19:34:27;;;;;;;;;;;;;;;4.84;100.00;96912.84;10519819;28;2929;-67
2022/11/12 19:39:30;;;;;;;;;;;;;;;4.83;100.00;96908.50;10523172;28;2881;-69
2022/11/12 19:44:33;;;;;;;;;;;;;;;4.79;100.00;96903.81;10524932;28;2922;-71
2022/11/12 19:49:37;;;;;;;;;;;;;;;4.83;100.00;96905.84;10527199;28;3012;-68
2022/11/12 19:54:40;;;;;;;;;;;;;;;4.69;100.00;96898.91;10553206;27;2938;-69
2022/11/12 19:59:43;;;;;;;;;;;;;;;4.78;100.00;96888.88;10526498;28;2955;-69
2022/11/12 20:04:46;;;;;;;;;;;;;;;4.69;100.00;96896.25;10525208;28;2864;-69
2022/11/12 20:09:49;;;;;;;;;;;;;;;4.75;100.00;96891.94;10520677;28;2861;-68
2022/11/12 20:14:52;;;;;;;;;;;;;;;4.92;100.00;96881.66;10525830;28;2910;-68
2022/11/12 20:19:56;;;;;;;;;;;;;;;4.82;100.00;96888.22;10522630;28;2926;-70
2022/11/12 20:24:59;;;;;;;;;;;;;;;4.84;100.00;96874.72;10517136;28;2895;-69
2022/11/12 20:30:02;;;;;;;;;;;;;;;4.92;100.00;96865.66;10518297;28;3230;-68
2022/11/12 20:35:06;;;;;;;;;;;;;;;4.75;100.00;96865.31;10517662;28;2899;-68
2022/11/12 20:40:21;;;;;;;;;;;;;;;4.85;100.00;96861.19;10510430;28;2868;-72
2022/11/12 20:45:24;;;;;;;;;;;;;;;4.73;100.00;96868.19;10519259;28;3315;-69
2022/11/12 20:50:27;;;;;;;;;;;;;;;4.80;100.00;96866.31;10514476;28;2881;-78
2022/11/12 20:55:31;;;;;;;;;;;;;;;4.61;100.00;96856.53;10522569;28;2884;-74
2022/11/12 21:00:34;;;;;;;;;;;;;;;4.59;100.00;96863.94;10514270;28;2984;-69
2022/11/12 21:05:37;;;;;;;;;;;;;;;4.74;100.00;96848.50;10506908;28;2981;-68
2022/11/12 21:10:41;;;;;;;;;;;;;;;4.78;100.00;96851.59;10541022;27;2901;-70
2022/11/12 21:15:44;;;;;;;;;;;;;;;4.46;100.00;96861.31;10516374;28;2843;-68
2022/11/12 21:20:51;;;;;;;;;;;;;;;4.60;100.00;96846.91;10511627;28;2962;-68
2022/11/12 21:25:54;;;;;;;;;;;;;;;4.52;100.00;96839.16;10511303;28;2835;-70
2022/11/12 21:30:57;;;;;;;;;;;;;;;4.34;100.00;96837.97;10498761;28;2892;-69
2022/11/12 21:36:00;;;;;;;;;;;;;;;4.18;100.00;96827.75;10507133;28;2930;-70
2022/11/12 21:41:04;;;;;;;;;;;;;;;3.92;100.00;96836.59;10503422;28;2928;-70
2022/11/12 21:46:07;;;;;;;;;;;;;;;3.59;100.00;96828.59;10506547;28;2934;-70
2022/11/12 21:51:10;;;;;;;;;;;;;;;3.76;100.00;96821.88;10506058;28;2941;-68
2022/11/12 21:56:13;;;;;;;;;;;;;;;3.70;100.00;96821.88;10505142;28;2854;-70
2022/11/12 22:01:18;;;;;;;;;;;;;;;3.87;100.00;96814.28;10508332;28;2966;-70
2022/11/12 22:06:21;;;;;;;;;;;;;;;3.69;100.00;96825.53;10506029;28;2836;-69
2022/11/12 22:11:26;;;;;;;;;;;;;;;3.80;100.00;96819.59;10511506;28;2894;-69
2022/11/12 22:16:29;;;;;;;;;;;;;;;3.86;100.00;96810.81;10521022;28;2933;-72
2022/11/12 22:21:32;;;;;;;;;;;;;;;3.74;100.00;96809.78;10518503;28;3132;-69
2022/11/12 22:26:41;;;;;;;;;;;;;;;3.56;100.00;96807.72;10506648;28;2929;-70
2022/11/12 22:31:45;;;;;;;;;;;;;;;3.52;100.00;96799.38;10508551;28;2898;-69
2022/11/12 22:36:48;;;;;;;;;;;;;;;3.52;100.00;96806.53;10507772;28;2895;-69
2022/11/12 22:41:51;;;;;;;;;;;;;;;3.68;100.00;96800.78;10505704;28;3125;-70
2022/11/12 22:46:55;;;;;;;;;;;;;;;3.45;100.00;96795.06;10509429;28;2914;-69
2022/11/12 22:51:58;;;;;;;;;;;;;;;3.70;100.00;96784.66;10521290;28;2918;-69
2022/11/12 22:57:01;;;;;;;;;;;;;;;3.61;100.00;96783.19;10513758;28;2865;-68
2022/11/12 23:02:06;;;;;;;;;;;;;;;3.74;100.00;96778.69;10511759;28;2905;-68
2022/11/12 23:07:09;;;;;;;;;;;;;;;3.83;100.00;96775.84;10510523;28;2886;-70
2022/11/12 23:12:13;;;;;;;;;;;;;;;3.73;100.00;96763.75;10514083;28;2907;-70
2022/11/12 23:17:16;;;;;;;;;;;;;;;3.76;100.00;96763.38;10508694;28;2895;-70
2022/11/12 23:22:19;;;;;;;;;;;;;;;3.52;100.00;96770.13;10513452;28;2925;-70
2022/11/12 23:27:23;;;;;;;;;;;;;;;3.66;100.00;96760.28;10512657;28;2894;-68
2022/11/12 23:32:26;;;;;;;;;;;;;;;3.56;100.00;96759.88;10508000;28;2866;-69
2022/11/12 23:37:36;;;;;;;;;;;;;;;3.65;100.00;96753.34;10507065;28;2883;-68
2022/11/12 23:42:39;;;;;;;;;;;;;;;3.59;100.00;96746.19;10514452;28;2885;-69
2022/11/12 23:47:43;;;;;;;;;;;;;;;3.58;100.00;96735.78;10516711;28;2972;-69
2022/11/12 23:52:46;;;;;;;;;;;;;;;3.58;100.00;96720.63;10503609;28;3030;-69
2022/11/12 23:57:49;;;;;;;;;;;;;;;3.21;100.00;96730.84;10516673;28;3001;-68
